createdAt,value
2018-05-06T00:01:27.782Z,16.00
2018-05-06T00:03:56.771Z,16.00
2018-05-06T00:06:24.995Z,15.90
2018-05-06T00:08:54.047Z,15.90
2018-05-06T00:11:22.270Z,15.80
2018-05-06T00:13:50.495Z,15.80
2018-05-06T00:16:18.765Z,15.70
2018-05-06T00:18:46.990Z,15.70
2018-05-06T00:21:15.219Z,15.70
2018-05-06T00:26:12.947Z,15.60
2018-05-06T00:28:41.175Z,15.60
2018-05-06T00:31:09.449Z,15.50
2018-05-06T00:33:37.749Z,15.50
2018-05-06T00:36:07.017Z,15.50
2018-05-06T00:38:35.291Z,15.50
2018-05-06T00:41:04.274Z,15.50
2018-05-06T00:43:32.501Z,15.40
2018-05-06T00:46:01.547Z,15.40
2018-05-06T00:48:29.775Z,15.30
2018-05-06T00:50:57.990Z,15.30
2018-05-06T00:53:27.234Z,15.30
2018-05-06T00:55:56.966Z,15.20
2018-05-06T00:58:26.698Z,15.10
2018-05-06T01:00:54.963Z,15.10
2018-05-06T01:03:23.190Z,15.10
2018-05-06T01:05:52.932Z,14.90
2018-05-06T01:08:21.196Z,15.00
2018-05-06T01:10:49.422Z,15.00
2018-05-06T01:13:17.646Z,14.90
2018-05-06T01:15:45.916Z,14.90
2018-05-06T01:18:14.903Z,14.90
2018-05-06T01:20:43.122Z,14.90
2018-05-06T01:23:11.402Z,14.90
2018-05-06T01:25:39.623Z,14.80
2018-05-06T01:28:07.857Z,14.80
2018-05-06T01:30:36.127Z,14.80
2018-05-06T01:33:04.355Z,14.70
2018-05-06T01:38:02.054Z,14.70
2018-05-06T01:40:30.283Z,14.60
2018-05-06T01:42:58.511Z,14.60
2018-05-06T01:45:26.778Z,14.50
2018-05-06T01:47:55.011Z,14.50
2018-05-06T01:50:23.238Z,14.50
2018-05-06T01:52:51.513Z,14.50
2018-05-06T01:55:19.786Z,14.40
2018-05-06T01:57:48.770Z,14.40
2018-05-06T02:00:17.047Z,14.30
2018-05-06T02:02:46.043Z,14.30
2018-05-06T02:05:14.278Z,14.20
2018-05-06T02:07:43.302Z,14.20
2018-05-06T02:10:11.530Z,14.20
2018-05-06T02:12:39.742Z,14.10
2018-05-06T02:15:08.015Z,14.10
2018-05-06T02:17:36.238Z,14.10
2018-05-06T02:22:34.707Z,14.00
2018-05-06T02:25:02.923Z,14.00
2018-05-06T02:27:31.151Z,14.00
2018-05-06T02:29:59.423Z,14.00
2018-05-06T02:32:28.415Z,13.90
2018-05-06T02:34:56.638Z,13.90
2018-05-06T02:37:24.915Z,13.90
2018-05-06T02:42:22.590Z,13.90
2018-05-06T02:44:51.999Z,13.80
2018-05-06T02:47:21.724Z,13.80
2018-05-06T02:49:49.951Z,13.70
2018-05-06T02:52:19.792Z,13.70
2018-05-06T02:54:49.525Z,13.70
2018-05-06T02:57:17.751Z,13.70
2018-05-06T02:59:46.023Z,13.60
2018-05-06T03:02:15.023Z,13.60
2018-05-06T03:04:44.754Z,13.50
2018-05-06T03:07:13.027Z,13.60
2018-05-06T03:09:41.254Z,13.50
2018-05-06T03:12:10.238Z,13.50
2018-05-06T03:14:38.523Z,13.50
2018-05-06T03:17:06.745Z,13.40
2018-05-06T03:19:34.985Z,13.40
2018-05-06T03:22:03.652Z,13.40
2018-05-06T03:24:31.885Z,13.30
2018-05-06T03:27:00.874Z,13.30
2018-05-06T03:29:29.354Z,13.30
2018-05-06T03:31:59.088Z,13.30
2018-05-06T03:36:57.979Z,13.20
2018-05-06T03:39:27.471Z,13.20
2018-05-06T03:44:25.578Z,13.30
2018-05-06T03:46:54.573Z,13.30
2018-05-06T03:49:23.931Z,13.40
2018-05-06T03:51:52.214Z,13.40
2018-05-06T03:54:20.438Z,13.40
2018-05-06T03:57:01.362Z,13.40
2018-05-06T03:59:42.278Z,13.40
2018-05-06T04:05:16.500Z,13.40
2018-05-06T04:07:44.767Z,13.50
2018-05-06T04:10:12.994Z,13.50
2018-05-06T04:12:41.232Z,13.50
2018-05-06T04:15:09.538Z,13.50
2018-05-06T04:17:37.767Z,13.50
2018-05-06T04:20:05.994Z,13.50
2018-05-06T04:22:34.279Z,13.50
2018-05-06T04:25:02.507Z,13.50
2018-05-06T04:27:31.504Z,13.50
2018-05-06T04:30:00.548Z,13.50
2018-05-06T04:32:28.775Z,13.40
2018-05-06T04:34:57.004Z,13.50
2018-05-06T04:37:26.042Z,13.40
2018-05-06T04:39:54.275Z,13.40
2018-05-06T04:42:22.499Z,13.40
2018-05-06T04:44:50.768Z,13.40
2018-05-06T04:47:19.003Z,13.40
2018-05-06T04:49:47.235Z,13.40
2018-05-06T04:52:15.503Z,13.50
2018-05-06T04:54:43.727Z,13.40
2018-05-06T04:57:11.951Z,13.50
2018-05-06T04:59:40.211Z,13.50
2018-05-06T05:02:09.202Z,13.50
2018-05-06T05:04:37.426Z,13.60
2018-05-06T05:07:05.699Z,13.70
2018-05-06T05:09:33.940Z,13.70
2018-05-06T05:12:03.671Z,13.70
2018-05-06T05:14:32.703Z,13.70
2018-05-06T05:17:01.703Z,13.80
2018-05-06T05:19:29.935Z,13.80
2018-05-06T05:21:58.195Z,13.80
2018-05-06T05:24:26.424Z,13.90
2018-05-06T05:26:55.419Z,13.90
2018-05-06T05:29:25.207Z,13.90
2018-05-06T05:31:53.440Z,13.90
2018-05-06T05:34:21.722Z,14.00
2018-05-06T05:39:19.406Z,14.10
2018-05-06T05:41:49.142Z,14.10
2018-05-06T05:44:18.248Z,14.20
2018-05-06T05:46:47.991Z,14.30
2018-05-06T05:49:17.354Z,14.30
2018-05-06T05:51:45.619Z,14.40
2018-05-06T05:54:14.651Z,14.50
2018-05-06T05:56:43.643Z,14.50
2018-05-06T05:59:11.866Z,14.60
2018-05-06T06:04:09.998Z,14.70
2018-05-06T06:06:38.996Z,14.80
2018-05-06T06:09:08.783Z,15.00
2018-05-06T06:11:38.514Z,15.00
2018-05-06T06:14:06.738Z,15.10
2018-05-06T06:16:35.207Z,15.10
2018-05-06T06:19:04.571Z,15.20
2018-05-06T06:21:32.803Z,15.40
2018-05-06T06:26:31.286Z,15.60
2018-05-06T06:29:01.063Z,15.80
2018-05-06T06:31:29.290Z,15.90
2018-05-06T06:33:57.514Z,16.10
2018-05-06T06:36:26.551Z,16.30
2018-05-06T06:38:55.545Z,16.50
2018-05-06T06:41:23.775Z,16.70
2018-05-06T06:43:52.055Z,17.00
2018-05-06T06:46:21.798Z,17.20
2018-05-06T06:48:50.795Z,17.50
2018-05-06T06:51:19.058Z,17.70
2018-05-06T06:53:48.052Z,18.00
2018-05-06T06:56:17.047Z,18.20
2018-05-06T06:58:46.450Z,18.40
2018-05-06T07:01:14.684Z,18.60
2018-05-06T07:03:43.677Z,18.80
2018-05-06T07:06:13.951Z,19.00
2018-05-06T07:08:42.570Z,19.20
2018-05-06T07:11:10.798Z,19.30
2018-05-06T07:13:39.492Z,19.40
2018-05-06T07:16:07.719Z,19.60
2018-05-06T07:18:35.947Z,19.60
2018-05-06T07:21:04.230Z,19.80
2018-05-06T07:23:32.459Z,19.90
2018-05-06T07:26:00.687Z,20.20
2018-05-06T07:28:28.959Z,20.40
2018-05-06T07:30:57.584Z,20.50
2018-05-06T07:33:26.567Z,20.60
2018-05-06T07:35:54.948Z,20.70
2018-05-06T07:38:23.090Z,20.80
2018-05-06T07:40:51.363Z,20.90
2018-05-06T07:43:20.355Z,21.00
2018-05-06T07:45:48.584Z,21.20
2018-05-06T07:48:17.141Z,21.40
2018-05-06T07:53:14.827Z,21.70
2018-05-06T07:55:43.087Z,21.80
2018-05-06T07:58:11.306Z,21.90
2018-05-06T08:00:39.892Z,22.00
2018-05-06T08:03:08.167Z,22.00
2018-05-06T08:05:37.531Z,22.10
2018-05-06T08:08:06.519Z,22.30
2018-05-06T08:10:35.563Z,22.50
2018-05-06T08:13:03.798Z,22.50
2018-05-06T08:15:32.027Z,22.70
2018-05-06T08:18:00.294Z,22.80
2018-05-06T08:20:28.519Z,22.90
2018-05-06T08:22:56.747Z,23.00
2018-05-06T08:25:26.138Z,23.10
2018-05-06T08:27:54.362Z,23.20
2018-05-06T08:30:24.434Z,23.40
2018-05-06T08:32:52.661Z,23.40
2018-05-06T08:35:20.890Z,23.50
2018-05-06T08:37:49.150Z,23.60
2018-05-06T08:40:17.379Z,23.80
2018-05-06T08:42:49.462Z,24.00
2018-05-06T08:47:47.144Z,24.30
2018-05-06T08:50:16.175Z,24.40
2018-05-06T08:52:44.403Z,24.60
2018-05-06T08:55:13.432Z,24.80
2018-05-06T08:57:41.663Z,25.00
2018-05-06T09:00:09.886Z,25.00
2018-05-06T09:02:38.911Z,25.10
2018-05-06T09:07:36.619Z,25.40
2018-05-06T09:10:06.015Z,25.70
2018-05-06T09:12:34.234Z,26.10
2018-05-06T09:15:02.582Z,26.70
2018-05-06T09:17:30.809Z,26.80
2018-05-06T09:19:59.060Z,27.60
2018-05-06T09:22:28.083Z,29.70
2018-05-06T09:24:56.699Z,31.30
2018-05-06T09:27:25.699Z,32.80
2018-05-06T09:29:53.994Z,33.60
2018-05-06T09:32:23.774Z,33.90
2018-05-06T09:34:51.951Z,33.60
2018-05-06T09:37:20.976Z,32.70
2018-05-06T09:39:49.599Z,31.70
2018-05-06T09:42:17.828Z,30.90
2018-05-06T09:44:46.090Z,30.40
2018-05-06T09:49:44.534Z,29.60
2018-05-06T09:52:14.363Z,29.40
2018-05-06T09:57:12.435Z,29.00
2018-05-06T09:59:40.710Z,28.90
2018-05-06T10:02:10.442Z,28.80
2018-05-06T10:04:39.495Z,28.70
2018-05-06T10:07:07.730Z,28.70
2018-05-06T10:09:36.719Z,28.70
2018-05-06T10:12:05.163Z,28.70
2018-05-06T10:14:33.787Z,28.70
2018-05-06T10:17:02.016Z,28.60
2018-05-06T10:19:30.314Z,28.60
2018-05-06T10:21:59.302Z,28.60
2018-05-06T10:24:27.531Z,28.60
2018-05-06T10:26:56.578Z,28.60
2018-05-06T10:29:25.571Z,28.60
2018-05-06T10:31:53.799Z,28.50
2018-05-06T10:34:22.083Z,28.40
2018-05-06T10:36:50.698Z,28.50
2018-05-06T10:39:18.931Z,28.60
2018-05-06T10:44:16.739Z,28.90
2018-05-06T10:46:44.886Z,29.00
2018-05-06T10:49:13.613Z,29.20
2018-05-06T10:51:42.901Z,29.40
2018-05-06T10:54:11.191Z,29.50
2018-05-06T10:56:39.419Z,29.60
2018-05-06T10:59:07.646Z,29.60
2018-05-06T11:01:37.427Z,29.50
2018-05-06T11:04:05.675Z,29.50
2018-05-06T11:06:33.879Z,29.50
2018-05-06T11:09:03.008Z,29.40
2018-05-06T11:11:31.998Z,29.40
2018-05-06T11:14:00.226Z,29.40
2018-05-06T11:16:30.028Z,29.50
2018-05-06T11:18:58.651Z,29.60
2018-05-06T11:21:26.879Z,29.70
2018-05-06T11:23:56.295Z,29.90
2018-05-06T11:26:25.290Z,30.00
2018-05-06T11:28:55.271Z,30.10
2018-05-06T11:31:24.679Z,30.20
2018-05-06T11:33:53.299Z,30.30
2018-05-06T11:36:22.662Z,30.40
2018-05-06T11:38:51.756Z,30.50
2018-05-06T11:41:21.119Z,30.60
2018-05-06T11:43:49.343Z,30.70
2018-05-06T11:46:18.056Z,30.70
2018-05-06T11:48:46.294Z,30.80
2018-05-06T11:53:44.002Z,30.90
2018-05-06T11:56:12.247Z,30.80
2018-05-06T11:58:40.455Z,30.60
2018-05-06T12:01:09.902Z,30.50
2018-05-06T12:03:38.127Z,30.40
2018-05-06T12:06:06.352Z,30.40
2018-05-06T12:08:36.163Z,30.20
2018-05-06T12:13:34.599Z,30.20
2018-05-06T12:16:04.710Z,30.30
2018-05-06T12:18:33.562Z,30.40
2018-05-06T12:21:03.294Z,30.20
2018-05-06T12:23:34.963Z,30.10
2018-05-06T12:26:03.163Z,30.00
2018-05-06T12:28:31.435Z,30.10
2018-05-06T12:31:01.217Z,30.10
2018-05-06T12:33:29.491Z,30.10
2018-05-06T12:35:57.719Z,30.10
2018-05-06T12:38:26.271Z,30.20
2018-05-06T12:43:23.991Z,30.10
2018-05-06T12:45:53.002Z,30.10
2018-05-06T12:48:21.991Z,30.10
2018-05-06T12:50:50.210Z,30.00
2018-05-06T13:00:48.669Z,30.00
2018-05-06T13:03:17.663Z,30.00
2018-05-06T13:05:47.395Z,30.00
2018-05-06T13:08:15.682Z,30.00
2018-05-06T13:10:43.907Z,29.90
2018-05-06T13:15:43.187Z,29.80
2018-05-06T13:18:12.175Z,29.70
2018-05-06T13:20:40.399Z,29.60
2018-05-06T13:23:10.463Z,29.50
2018-05-06T13:25:41.142Z,29.50
2018-05-06T13:28:09.759Z,29.40
2018-05-06T13:33:07.962Z,29.10
2018-05-06T13:35:36.955Z,29.00
2018-05-06T13:38:06.324Z,29.00
2018-05-06T13:40:35.371Z,28.90
2018-05-06T13:43:04.363Z,28.90
2018-05-06T13:45:33.362Z,28.70
2018-05-06T13:48:01.630Z,28.60
2018-05-06T13:50:31.355Z,28.40
2018-05-06T13:52:59.579Z,28.40
2018-05-06T13:55:27.871Z,28.20
2018-05-06T13:57:57.231Z,28.10
2018-05-06T14:00:25.547Z,28.00
2018-05-06T14:02:55.279Z,27.90
2018-05-06T14:05:24.270Z,27.80
2018-05-06T14:10:22.794Z,27.50
2018-05-06T14:12:51.787Z,27.50
2018-05-06T14:15:20.279Z,27.50
2018-05-06T14:17:50.015Z,27.40
2018-05-06T14:20:18.239Z,27.40
2018-05-06T14:25:17.264Z,27.20
2018-05-06T14:27:46.255Z,27.20
2018-05-06T14:30:15.311Z,27.10
2018-05-06T14:32:44.671Z,27.10
2018-05-06T14:35:12.899Z,27.10
2018-05-06T14:37:41.183Z,27.10
2018-05-06T14:40:09.410Z,27.00
2018-05-06T14:42:37.643Z,27.00
2018-05-06T14:47:47.367Z,27.00
2018-05-06T14:50:16.463Z,26.90
2018-05-06T14:52:46.195Z,27.00
2018-05-06T14:57:45.768Z,26.80
2018-05-06T15:00:13.998Z,26.80
2018-05-06T15:02:43.075Z,26.80
2018-05-06T15:05:12.062Z,26.80
2018-05-06T15:07:40.300Z,26.80
2018-05-06T15:10:08.602Z,26.70
2018-05-06T15:12:36.830Z,26.70
2018-05-06T15:15:06.570Z,26.70
2018-05-06T15:17:35.659Z,26.70
2018-05-06T15:20:05.396Z,26.70
2018-05-06T15:22:33.614Z,26.70
2018-05-06T15:25:01.871Z,26.60
2018-05-06T15:27:30.098Z,26.70
2018-05-06T15:29:58.379Z,26.60
2018-05-06T15:32:27.371Z,26.60
2018-05-06T15:34:55.597Z,26.60
2018-05-06T15:37:23.927Z,26.60
2018-05-06T15:39:52.168Z,26.70
2018-05-06T15:42:21.884Z,26.60
2018-05-06T15:44:51.107Z,26.60
2018-05-06T15:47:20.105Z,26.60
2018-05-06T15:49:48.331Z,26.50
2018-05-06T15:52:18.086Z,26.50
2018-05-06T15:54:46.391Z,26.50
2018-05-06T15:57:14.571Z,26.50
2018-05-06T15:59:43.606Z,26.50
2018-05-06T16:05:27.764Z,26.40
2018-05-06T16:07:57.486Z,26.30
2018-05-06T16:10:25.710Z,26.30
2018-05-06T16:12:54.066Z,26.30
2018-05-06T16:15:22.229Z,26.30
2018-05-06T16:17:50.447Z,26.30
2018-05-06T16:20:19.514Z,26.30
2018-05-06T16:22:47.754Z,26.20
2018-05-06T16:25:15.968Z,26.20
2018-05-06T16:27:45.759Z,26.20
2018-05-06T16:30:13.987Z,26.20
2018-05-06T16:32:42.211Z,26.10
2018-05-06T16:35:11.308Z,26.00
2018-05-06T16:37:40.299Z,26.00
2018-05-06T16:40:08.518Z,26.00
2018-05-06T16:42:36.786Z,26.00
2018-05-06T16:45:05.015Z,25.90
2018-05-06T16:52:33.714Z,25.80
2018-05-06T16:55:01.975Z,25.80
2018-05-06T17:00:10.126Z,25.70
2018-05-06T17:02:39.542Z,25.70
2018-05-06T17:05:07.763Z,25.70
2018-05-06T17:07:36.457Z,25.60
2018-05-06T17:10:04.678Z,25.60
2018-05-06T17:15:02.387Z,25.50
2018-05-06T17:17:31.007Z,25.50
2018-05-06T17:20:15.007Z,25.40
2018-05-06T17:22:43.225Z,25.40
2018-05-06T17:25:11.511Z,25.30
2018-05-06T17:27:39.742Z,25.20
2018-05-06T17:30:08.726Z,25.30
2018-05-06T17:32:37.011Z,25.20
2018-05-06T17:37:35.079Z,25.10
2018-05-06T17:40:03.363Z,25.20
2018-05-06T17:42:33.096Z,25.10
2018-05-06T17:45:01.324Z,25.00
2018-05-06T17:47:29.607Z,25.00
2018-05-06T17:49:57.896Z,25.00
2018-05-06T17:52:26.063Z,24.90
2018-05-06T17:54:54.793Z,24.90
2018-05-06T17:57:23.782Z,24.90
2018-05-06T17:59:52.002Z,24.80
2018-05-06T18:02:20.288Z,24.80
2018-05-06T18:04:48.512Z,24.80
2018-05-06T18:07:18.242Z,24.70
2018-05-06T18:09:47.278Z,24.60
2018-05-06T18:14:44.987Z,24.50
2018-05-06T18:17:13.255Z,24.50
2018-05-06T18:19:41.492Z,24.40
2018-05-06T18:22:09.703Z,24.40
2018-05-06T18:24:39.198Z,24.30
2018-05-06T18:27:08.491Z,24.30
2018-05-06T18:29:37.511Z,24.20
2018-05-06T18:32:05.766Z,24.10
2018-05-06T18:34:34.387Z,24.10
2018-05-06T18:37:03.791Z,24.00
2018-05-06T18:39:32.019Z,23.90
2018-05-06T18:42:01.748Z,23.90
2018-05-06T18:44:30.417Z,23.80
2018-05-06T18:46:58.838Z,23.70
2018-05-06T18:49:26.882Z,23.70
2018-05-06T18:51:55.155Z,23.60
2018-05-06T18:54:23.384Z,23.50
2018-05-06T18:59:21.167Z,23.50
2018-05-06T19:01:49.392Z,23.40
2018-05-06T19:04:18.795Z,23.30
2018-05-06T19:06:47.018Z,23.30
2018-05-06T19:09:16.006Z,23.20
2018-05-06T19:11:45.435Z,23.20
2018-05-06T19:14:13.660Z,23.20
2018-05-06T19:16:42.391Z,23.10
2018-05-06T19:19:12.127Z,23.00
2018-05-06T19:21:41.486Z,22.90
2018-05-06T19:24:10.250Z,22.90
2018-05-06T19:26:38.493Z,22.90
2018-05-06T19:31:37.323Z,22.80
2018-05-06T19:34:06.318Z,22.70
2018-05-06T19:36:34.551Z,22.70
2018-05-06T19:39:04.335Z,22.70
2018-05-06T19:41:32.563Z,22.60
2018-05-06T19:44:00.822Z,22.60
2018-05-06T19:46:29.110Z,22.60
2018-05-06T19:48:57.359Z,22.50
2018-05-06T19:51:25.615Z,22.50
2018-05-06T19:53:53.890Z,22.40
2018-05-06T19:58:51.647Z,22.30
2018-05-06T20:01:21.378Z,22.30
2018-05-06T20:03:49.604Z,22.20
2018-05-06T20:06:17.887Z,22.20
2018-05-06T20:08:46.116Z,22.10
2018-05-06T20:11:14.334Z,22.00
2018-05-06T20:13:42.623Z,22.00
2018-05-06T20:16:10.897Z,22.00
2018-05-06T20:18:40.207Z,21.90
2018-05-06T20:21:08.478Z,21.90
2018-05-06T20:23:37.470Z,21.80
2018-05-06T20:26:06.459Z,21.80
2018-05-06T20:28:34.750Z,21.70
2018-05-06T20:31:02.971Z,21.70
2018-05-06T20:33:31.199Z,21.70
2018-05-06T20:35:59.487Z,21.60
2018-05-06T20:38:27.752Z,21.60
2018-05-06T20:40:55.947Z,21.50
2018-05-06T20:43:24.214Z,21.50
2018-05-06T20:45:53.587Z,21.40
2018-05-06T20:48:21.843Z,21.40
2018-05-06T20:50:50.220Z,21.30
2018-05-06T20:53:18.432Z,21.20
2018-05-06T20:55:46.650Z,21.20
2018-05-06T20:58:16.414Z,21.10
2018-05-06T21:00:46.147Z,21.10
2018-05-06T21:03:14.370Z,21.00
2018-05-06T21:05:42.664Z,21.00
2018-05-06T21:08:10.895Z,20.90
2018-05-06T21:10:39.118Z,20.90
2018-05-06T21:13:07.423Z,20.80
2018-05-06T21:15:36.790Z,20.70
2018-05-06T21:20:36.047Z,20.70
2018-05-06T21:23:05.052Z,20.60
2018-05-06T21:25:33.267Z,20.60
2018-05-06T21:28:01.568Z,20.50
2018-05-06T21:30:31.290Z,20.50
2018-05-06T21:33:00.350Z,20.50
2018-05-06T21:35:28.697Z,20.40
2018-05-06T21:37:57.616Z,20.40
2018-05-06T21:40:25.845Z,20.40
2018-05-06T21:42:54.511Z,20.30
2018-05-06T21:45:22.760Z,20.30
2018-05-06T21:47:51.738Z,20.30
2018-05-06T21:50:20.475Z,20.20
2018-05-06T21:52:49.509Z,20.20
2018-05-06T21:55:18.683Z,20.20
2018-05-06T21:57:46.972Z,20.20
2018-05-06T22:00:15.202Z,20.20
2018-05-06T22:05:13.736Z,20.10
2018-05-06T22:10:11.410Z,20.10
2018-05-06T22:12:39.679Z,20.00
2018-05-06T22:15:07.908Z,20.00
2018-05-06T22:17:37.640Z,20.00
2018-05-06T22:20:06.756Z,20.00
2018-05-06T22:22:35.827Z,20.00
2018-05-06T22:25:03.970Z,19.90
2018-05-06T22:30:02.803Z,19.80
2018-05-06T22:32:31.018Z,19.80
2018-05-06T22:34:59.283Z,19.80
2018-05-06T22:37:27.506Z,19.80
2018-05-06T22:42:25.274Z,19.80
2018-05-06T22:44:53.899Z,19.80
2018-05-06T22:47:22.939Z,19.80
2018-05-06T22:49:51.563Z,19.70
2018-05-06T22:52:19.804Z,19.70
2018-05-06T22:57:17.531Z,19.70
2018-05-06T22:59:46.635Z,19.70
2018-05-06T23:02:15.566Z,19.60
2018-05-06T23:07:13.638Z,19.50
2018-05-06T23:09:41.958Z,19.50
2018-05-06T23:12:10.187Z,19.40
2018-05-06T23:14:38.402Z,19.40
2018-05-06T23:17:06.664Z,19.30
2018-05-06T23:19:35.377Z,19.30
2018-05-06T23:22:04.414Z,19.30
2018-05-06T23:24:32.671Z,19.20
2018-05-06T23:27:00.894Z,19.20
2018-05-06T23:29:29.155Z,19.10
2018-05-06T23:34:26.938Z,19.00
2018-05-06T23:36:55.171Z,18.90
2018-05-06T23:39:23.399Z,18.90
2018-05-06T23:41:51.659Z,18.90
2018-05-06T23:44:19.878Z,18.80
2018-05-06T23:46:48.518Z,18.80
2018-05-06T23:49:17.547Z,18.80
2018-05-06T23:51:45.772Z,18.80
2018-05-06T23:54:14.031Z,18.80
2018-05-06T23:56:42.455Z,18.70
2018-05-06T23:59:10.691Z,18.70
